Hauptseite
METAR-TAF:

METAR-TAF

Flughäfen :

Flughafen Yamaguchi-Ube

Ube, Japan

Breite: 33-57N, Länge: 131-15E, Höhe: 5 m

Beobachtung

Neuester Wetterbericht von vor 55 Minuten, um 16:00 UTC
Wind 9 kt aus Ost
Temperatur 27°C
Luftfeuchtigkeit 89%
Luftdruck 1008 hPa
Sichtweite 10 km oder mehr

METAR: RJDC 181600Z AUTO 08009KT 9999 NSC 27/25 Q1008

Zeit: 01:55 (16:55 UTC)


TAF: fehlend

Wetterbeobachtungen und Prognosen von mehr als 4000 Flughäfen (METAR und TAF Bericht).

Die verfügbaren Stationen werden durch gelbe und rote Markierungen auf der Karte dargestellt.

Führen Sie die Maus auf sie, um den Namen der Station zu sehen.

Darauf klicken, um die Beobachtung von Wetterbeobachtungen und Prognosen zu sehen.

Um die Karte zu ändern : klicken Sie auf den grünen Tasten mit einem schwarzen Kreuz Zum Vergrößern, auf den grünen Button mit einem Gedankenstrich zu verkleinern, oder auf die grünen Pfeile für benachbarte Karten.


METAR-TAF: